Time;durP1;ratioP1;P1;durP2;ratioP2;P2;SDS_P1;SDS_P2;PMS_P1;PMS_P2;Temp;Humidity;BMP_temperature;BMP_pressure;BME280_temperature;BME280_humidity;BME280_pressure;Samples;Min_cycle;Max_cycle;Signal;HPM_P1;HPM_P2
2021/06/11 00:00:28;;;;;;;11.82;8.95;;;18.50;90.30;;;;;;2032174;29;20107;-70
2021/06/11 00:01:28;;;;;;;9.40;8.50;;;18.50;90.30;;;;;;2040674;29;20122;-69
2021/06/11 00:02:29;;;;;;;9.77;8.77;;;18.50;90.30;;;;;;2039930;29;20039;-70
2021/06/11 00:03:29;;;;;;;10.73;8.32;;;18.50;90.80;;;;;;2039742;29;20027;-70
2021/06/11 00:04:30;;;;;;;8.80;8.00;;;18.50;91.10;;;;;;2040001;29;20491;-69
2021/06/11 00:05:31;;;;;;;8.70;7.90;;;18.50;91.20;;;;;;2039649;29;20035;-69
2021/06/11 00:06:32;;;;;;;8.20;7.50;;;18.50;91.20;;;;;;2040132;29;20504;-70
2021/06/11 00:07:33;;;;;;;8.30;7.50;;;18.50;91.20;;;;;;2040016;29;20051;-69
2021/06/11 00:08:34;;;;;;;9.10;8.20;;;18.50;91.30;;;;;;2040080;29;20039;-69
2021/06/11 00:09:35;;;;;;;8.68;7.88;;;18.50;91.30;;;;;;2040689;29;20023;-69
2021/06/11 00:10:36;;;;;;;9.13;8.10;;;18.50;91.30;;;;;;2039907;29;20098;-70
2021/06/11 00:11:36;;;;;;;8.93;8.10;;;18.50;91.30;;;;;;2039868;29;20051;-68
2021/06/11 00:12:38;;;;;;;8.90;8.10;;;18.50;91.30;;;;;;2040544;29;20023;-70
2021/06/11 00:13:39;;;;;;;8.50;7.53;;;18.40;91.30;;;;;;2040152;29;20123;-70
2021/06/11 00:14:41;;;;;;;8.75;7.90;;;18.50;91.30;;;;;;2039378;29;20023;-70
2021/06/11 00:15:42;;;;;;;8.30;7.50;;;18.50;91.10;;;;;;2040656;29;20038;-69
2021/06/11 00:16:43;;;;;;;8.05;7.25;;;18.40;90.90;;;;;;2040538;29;20036;-70
2021/06/11 00:17:44;;;;;;;7.88;7.10;;;18.40;90.80;;;;;;2040057;29;20027;-70
2021/06/11 00:18:44;;;;;;;8.25;7.45;;;18.50;90.90;;;;;;2040127;29;20476;-70
2021/06/11 00:19:45;;;;;;;8.25;7.45;;;18.50;90.80;;;;;;2040123;29;20034;-70
2021/06/11 00:20:46;;;;;;;8.73;7.82;;;18.50;90.70;;;;;;2039760;29;20563;-69
2021/06/11 00:21:46;;;;;;;8.38;7.57;;;18.50;90.60;;;;;;2040529;29;20814;-69
2021/06/11 00:22:48;;;;;;;8.13;7.40;;;18.50;90.60;;;;;;2041941;29;20090;-70
2021/06/11 00:23:48;;;;;;;8.43;7.63;;;18.50;90.50;;;;;;2047308;29;20038;-69
2021/06/11 00:24:49;;;;;;;8.85;7.97;;;18.40;90.30;;;;;;2045448;29;20040;-69
2021/06/11 00:25:50;;;;;;;9.52;8.63;;;18.50;90.20;;;;;;2048466;29;20030;-70
2021/06/11 00:26:51;;;;;;;10.25;8.63;;;18.40;90.10;;;;;;2038861;29;20032;-70
2021/06/11 00:27:54;;;;;;;9.07;8.23;;;18.40;90.10;;;;;;2046858;29;20027;-70
2021/06/11 00:28:55;;;;;;;10.07;9.18;;;18.40;90.10;;;;;;2040977;29;20019;-70
2021/06/11 00:29:55;;;;;;;10.00;9.00;;;18.40;90.10;;;;;;2040883;29;20031;-70
2021/06/11 00:30:56;;;;;;;9.80;8.88;;;18.50;90.20;;;;;;2039972;29;20058;-70
2021/06/11 00:31:56;;;;;;;9.50;8.60;;;18.40;90.20;;;;;;2047975;29;20046;-70
2021/06/11 00:32:58;;;;;;;10.55;9.05;;;18.40;90.30;;;;;;2040620;29;20024;-70
2021/06/11 00:33:59;;;;;;;9.68;8.73;;;18.50;90.40;;;;;;2040383;29;20030;-70
2021/06/11 00:34:59;;;;;;;9.00;8.10;;;18.50;90.50;;;;;;2039694;29;20038;-69
2021/06/11 00:36:00;;;;;;;9.27;8.38;;;18.50;90.60;;;;;;2040474;29;20038;-69
2021/06/11 00:37:00;;;;;;;8.68;7.80;;;18.40;90.50;;;;;;2040592;29;20074;-68
2021/06/11 00:38:01;;;;;;;9.95;8.95;;;18.40;90.50;;;;;;2040419;29;20035;-69
2021/06/11 00:39:03;;;;;;;9.65;8.75;;;18.40;90.50;;;;;;2040546;29;20023;-69
2021/06/11 00:40:09;;;;;;;9.52;8.63;;;18.40;90.50;;;;;;2040017;29;20039;-69
2021/06/11 00:41:09;;;;;;;9.68;8.68;;;18.40;90.60;;;;;;2040158;29;20131;-70
2021/06/11 00:42:10;;;;;;;9.52;8.63;;;18.40;90.70;;;;;;2040348;29;20396;-70
2021/06/11 00:43:13;;;;;;;10.43;9.23;;;18.40;90.80;;;;;;2039852;29;20043;-68
2021/06/11 00:44:13;;;;;;;10.55;9.55;;;18.40;90.80;;;;;;2039747;29;20119;-69
2021/06/11 00:45:15;;;;;;;9.32;8.43;;;18.40;90.80;;;;;;2039759;29;20095;-69
2021/06/11 00:46:16;;;;;;;10.07;9.00;;;18.30;90.70;;;;;;2040494;29;20042;-70
2021/06/11 00:47:17;;;;;;;10.70;9.60;;;18.40;90.80;;;;;;2040197;29;20042;-70
2021/06/11 00:48:17;;;;;;;9.93;9.02;;;18.40;90.80;;;;;;2032149;29;20050;-70
2021/06/11 00:49:19;;;;;;;10.20;9.20;;;18.30;90.70;;;;;;2032165;29;20028;-70
2021/06/11 00:50:26;;;;;;;10.30;9.07;;;18.30;90.80;;;;;;2039695;29;20094;-70
2021/06/11 00:51:27;;;;;;;10.98;9.80;;;18.30;91.10;;;;;;2039836;29;20052;-70
2021/06/11 00:52:31;;;;;;;10.25;9.25;;;18.30;90.70;;;;;;2040252;29;20024;-70
2021/06/11 00:53:32;;;;;;;9.85;8.95;;;18.30;90.80;;;;;;2031948;29;20076;-70
2021/06/11 00:54:33;;;;;;;9.80;8.90;;;18.20;90.80;;;;;;2031163;29;20503;-69
2021/06/11 00:55:35;;;;;;;10.40;9.30;;;18.30;91.20;;;;;;2032066;29;20036;-70
2021/06/11 00:56:36;;;;;;;10.60;9.60;;;18.30;90.80;;;;;;2031996;29;20115;-70
2021/06/11 00:57:36;;;;;;;10.85;9.73;;;18.30;90.90;;;;;;2040298;29;20043;-70
2021/06/11 00:58:37;;;;;;;10.48;9.40;;;18.30;91.00;;;;;;2039883;29;20047;-70
2021/06/11 00:59:43;;;;;;;10.73;9.63;;;18.30;90.90;;;;;;2040193;29;20032;-70
2021/06/11 01:00:45;;;;;;;10.40;9.40;;;18.30;90.90;;;;;;2031664;29;20043;-69
2021/06/11 01:01:46;;;;;;;10.95;9.85;;;18.20;90.80;;;;;;2024114;29;20453;-69
2021/06/11 01:02:47;;;;;;;10.80;9.70;;;18.20;90.80;;;;;;2031803;29;20036;-69
2021/06/11 01:03:47;;;;;;;10.80;9.70;;;18.20;90.90;;;;;;2039955;29;20028;-68
2021/06/11 01:04:49;;;;;;;10.98;9.88;;;18.20;90.90;;;;;;2039413;29;20171;-69
2021/06/11 01:05:51;;;;;;;11.05;9.95;;;18.20;90.80;;;;;;2040350;29;20024;-69
2021/06/11 01:06:52;;;;;;;10.85;9.80;;;18.20;90.80;;;;;;2040328;29;20027;-70
2021/06/11 01:07:57;;;;;;;10.65;9.55;;;18.20;90.80;;;;;;2040710;29;20023;-69
2021/06/11 01:08:58;;;;;;;10.13;9.13;;;18.20;90.80;;;;;;2040536;29;20038;-69
2021/06/11 01:10:00;;;;;;;10.38;9.23;;;18.20;90.80;;;;;;2040473;29;20030;-69
2021/06/11 01:11:01;;;;;;;11.30;10.10;;;18.20;90.90;;;;;;2040752;29;20044;-70
2021/06/11 01:12:03;;;;;;;10.52;9.52;;;18.20;91.00;;;;;;2040563;29;20133;-70
2021/06/11 01:13:04;;;;;;;11.07;9.88;;;18.20;91.00;;;;;;2040490;29;20024;-70
2021/06/11 01:14:06;;;;;;;10.25;9.25;;;18.20;91.00;;;;;;2039628;29;20036;-73
2021/06/11 01:15:07;;;;;;;10.77;9.65;;;18.20;91.10;;;;;;2038933;29;20491;-70
2021/06/11 01:16:08;;;;;;;11.30;10.20;;;18.20;91.10;;;;;;2040480;29;20040;-70
2021/06/11 01:17:10;;;;;;;11.68;9.63;;;18.20;91.10;;;;;;2039626;29;20118;-69
2021/06/11 01:18:12;;;;;;;10.85;9.82;;;18.20;91.20;;;;;;2039568;29;20031;-70
2021/06/11 01:19:13;;;;;;;12.02;10.02;;;18.20;91.20;;;;;;2040322;29;20107;-70
2021/06/11 01:20:16;;;;;;;11.30;10.10;;;18.20;91.20;;;;;;2040017;29;20028;-69
2021/06/11 01:21:19;;;;;;;11.85;10.65;;;18.20;91.20;;;;;;2039613;29;20031;-70
2021/06/11 01:22:49;;;;;;;11.25;10.05;;;18.20;91.20;;;;;;2039539;29;20468;-70
2021/06/11 01:24:07;;;;;;;11.03;9.90;;;18.10;91.10;;;;;;2040130;29;20053;-70
2021/06/11 01:25:15;;;;;;;10.35;9.35;;;18.10;91.20;;;;;;2032173;29;20272;-68
2021/06/11 01:26:44;;;;;;;11.07;9.98;;;18.10;91.20;;;;;;2032003;29;20036;-68
2021/06/11 01:27:46;;;;;;;11.32;10.23;;;18.10;91.20;;;;;;2033884;29;20039;-69
2021/06/11 01:28:50;;;;;;;11.35;10.15;;;18.10;91.20;;;;;;2040143;29;20543;-69
2021/06/11 01:29:52;;;;;;;10.75;9.75;;;18.10;91.20;;;;;;2039504;29;20019;-70
2021/06/11 01:30:56;;;;;;;11.07;9.98;;;18.20;91.30;;;;;;2031704;29;20047;-70
2021/06/11 01:31:59;;;;;;;11.68;10.48;;;18.20;91.20;;;;;;2031943;29;20116;-70
2021/06/11 01:33:02;;;;;;;11.55;10.50;;;18.20;91.30;;;;;;2031959;29;20033;-70
2021/06/11 01:34:33;;;;;;;11.15;10.05;;;18.10;91.30;;;;;;2039116;29;20036;-69
2021/06/11 01:35:40;;;;;;;12.07;10.13;;;18.20;91.40;;;;;;2036211;29;20027;-70
2021/06/11 01:36:46;;;;;;;11.10;10.00;;;18.20;91.50;;;;;;2040175;29;20555;-70
2021/06/11 01:37:52;;;;;;;11.07;9.82;;;18.20;91.50;;;;;;2039501;29;20020;-70
2021/06/11 01:38:55;;;;;;;10.25;9.25;;;18.20;91.50;;;;;;2039283;29;20023;-70
2021/06/11 01:39:57;;;;;;;10.80;9.70;;;18.10;91.40;;;;;;2039329;29;20082;-70
2021/06/11 01:40:59;;;;;;;11.00;9.93;;;18.20;91.40;;;;;;2039477;29;20500;-70
2021/06/11 01:42:00;;;;;;;10.70;9.70;;;18.10;91.30;;;;;;2040107;29;20086;-70
2021/06/11 01:43:02;;;;;;;11.35;10.25;;;18.20;91.30;;;;;;2039944;29;20119;-70
2021/06/11 01:44:04;;;;;;;11.30;10.10;;;18.20;91.30;;;;;;2040014;29;20062;-70
2021/06/11 01:45:15;;;;;;;12.43;10.60;;;18.20;91.40;;;;;;2039440;29;20028;-70
2021/06/11 01:46:20;;;;;;;12.73;11.00;;;18.20;91.40;;;;;;2040114;29;20034;-70
2021/06/11 01:47:23;;;;;;;12.25;11.05;;;18.20;91.40;;;;;;2039989;29;20031;-70
2021/06/11 01:48:25;;;;;;;12.98;11.60;;;18.20;91.30;;;;;;2031607;29;20051;-70
2021/06/11 01:49:28;;;;;;;12.23;11.02;;;18.20;91.30;;;;;;2032029;29;20040;-70
2021/06/11 01:50:31;;;;;;;12.70;11.40;;;18.20;91.50;;;;;;2039420;29;20028;-70
2021/06/11 01:51:34;;;;;;;13.50;11.02;;;18.20;91.50;;;;;;2039566;29;20389;-70
2021/06/11 01:52:36;;;;;;;12.52;11.20;;;18.20;91.50;;;;;;2031630;29;20103;-70
2021/06/11 01:53:40;;;;;;;12.48;11.23;;;18.20;91.50;;;;;;2031877;29;20028;-70
2021/06/11 01:54:43;;;;;;;14.57;12.40;;;18.20;91.50;;;;;;2038626;29;20055;-70
2021/06/11 01:55:45;;;;;;;13.43;12.00;;;18.10;91.50;;;;;;2039402;29;20361;-70
2021/06/11 01:56:46;;;;;;;12.75;11.20;;;18.10;91.50;;;;;;2038376;29;20407;-70
2021/06/11 01:57:48;;;;;;;12.32;10.63;;;18.10;91.60;;;;;;2040104;29;20129;-70
2021/06/11 01:58:49;;;;;;;12.27;10.82;;;18.10;91.50;;;;;;2039825;29;20082;-70
2021/06/11 01:59:52;;;;;;;11.98;10.77;;;18.10;91.60;;;;;;2039360;29;20091;-70
2021/06/11 02:00:54;;;;;;;11.63;10.45;;;18.10;91.50;;;;;;2039127;29;20102;-70
2021/06/11 02:01:56;;;;;;;11.48;10.25;;;18.10;91.60;;;;;;2039884;29;20046;-70
2021/06/11 02:02:58;;;;;;;11.73;10.60;;;18.10;91.60;;;;;;2039912;29;20020;-69
2021/06/11 02:03:59;;;;;;;11.48;10.27;;;18.10;91.70;;;;;;2032307;29;20518;-69
2021/06/11 02:05:03;;;;;;;11.18;9.98;;;18.10;91.70;;;;;;2039068;29;20035;-69
2021/06/11 02:06:05;;;;;;;11.50;10.43;;;18.00;91.70;;;;;;2039908;29;20032;-69
2021/06/11 02:07:09;;;;;;;11.00;9.90;;;18.10;91.80;;;;;;2039947;29;20070;-70
2021/06/11 02:08:11;;;;;;;10.75;9.70;;;18.10;91.90;;;;;;2039291;29;20491;-70
2021/06/11 02:09:12;;;;;;;11.00;9.90;;;18.10;92.00;;;;;;2031191;29;20032;-69
2021/06/11 02:10:17;;;;;;;10.55;9.45;;;18.00;92.00;;;;;;2023616;29;20036;-69
2021/06/11 02:11:19;;;;;;;11.05;9.98;;;18.00;92.00;;;;;;2032042;29;20081;-69
2021/06/11 02:12:20;;;;;;;10.60;9.60;;;18.00;92.00;;;;;;2031390;29;20028;-70
2021/06/11 02:13:21;;;;;;;11.05;9.95;;;18.00;92.00;;;;;;2031599;29;20043;-70
2021/06/11 02:14:22;;;;;;;10.73;9.63;;;18.00;92.10;;;;;;2039976;29;20138;-70
2021/06/11 02:15:24;;;;;;;11.20;10.10;;;18.00;92.20;;;;;;2039201;29;20024;-70
2021/06/11 02:16:28;;;;;;;10.68;9.63;;;18.00;92.20;;;;;;2040139;29;20143;-69
2021/06/11 02:17:30;;;;;;;10.73;9.57;;;18.00;92.30;;;;;;2039900;29;20059;-68
2021/06/11 02:18:33;;;;;;;10.50;9.43;;;18.00;92.40;;;;;;2039912;29;20035;-68
2021/06/11 02:19:36;;;;;;;11.05;9.95;;;17.90;92.40;;;;;;2039820;29;20027;-68
2021/06/11 02:20:36;;;;;;;11.07;9.98;;;18.00;92.40;;;;;;2039720;29;20067;-68
2021/06/11 02:21:39;;;;;;;11.57;10.38;;;17.90;92.50;;;;;;2039921;29;20035;-68
2021/06/11 02:22:42;;;;;;;11.63;10.50;;;17.90;92.50;;;;;;2039880;29;20060;-67
2021/06/11 02:23:43;;;;;;;11.15;10.05;;;17.90;92.60;;;;;;2041367;29;20032;-68
2021/06/11 02:24:44;;;;;;;11.60;10.25;;;17.90;92.70;;;;;;2040563;29;20480;-69
2021/06/11 02:25:45;;;;;;;11.43;10.30;;;17.90;92.80;;;;;;2033370;29;20024;-68
2021/06/11 02:26:46;;;;;;;11.90;10.70;;;17.90;92.80;;;;;;2033147;29;20062;-68
2021/06/11 02:27:48;;;;;;;11.43;10.25;;;17.80;92.80;;;;;;2041604;29;20051;-69
2021/06/11 02:28:50;;;;;;;11.57;10.48;;;17.80;92.80;;;;;;2032946;29;20034;-69
2021/06/11 02:29:51;;;;;;;11.68;10.48;;;17.80;92.80;;;;;;2033292;29;20025;-68
2021/06/11 02:30:51;;;;;;;11.40;10.18;;;17.80;92.80;;;;;;2041379;29;20749;-68
2021/06/11 02:31:52;;;;;;;12.13;10.85;;;17.80;92.90;;;;;;2041634;29;20050;-71
2021/06/11 02:32:53;;;;;;;11.30;10.20;;;17.80;92.90;;;;;;2041949;29;20459;-69
2021/06/11 02:33:53;;;;;;;11.90;10.70;;;17.80;93.00;;;;;;2041929;29;20020;-70
2021/06/11 02:34:54;;;;;;;12.05;10.10;;;17.80;93.00;;;;;;2040249;29;20043;-69
2021/06/11 02:35:55;;;;;;;13.30;11.90;;;17.80;93.10;;;;;;2041429;29;20020;-69
2021/06/11 02:36:56;;;;;;;13.48;11.02;;;17.80;93.20;;;;;;2033557;29;20035;-70
2021/06/11 02:37:58;;;;;;;11.82;10.73;;;17.70;93.20;;;;;;2033554;29;20495;-70
2021/06/11 02:38:59;;;;;;;12.60;11.30;;;17.70;93.30;;;;;;2041242;29;20036;-70
2021/06/11 02:40:01;;;;;;;13.25;11.57;;;17.70;93.40;;;;;;2033406;29;20494;-70
2021/06/11 02:41:03;;;;;;;12.63;10.90;;;17.70;93.50;;;;;;2033998;29;20028;-70
2021/06/11 02:42:07;;;;;;;12.02;10.82;;;17.70;93.50;;;;;;2041561;29;20114;-70
2021/06/11 02:43:14;;;;;;;11.98;10.75;;;17.70;93.70;;;;;;2041486;29;20059;-70
2021/06/11 02:44:15;;;;;;;11.90;10.35;;;17.60;93.80;;;;;;2040150;29;20040;-69
2021/06/11 02:45:23;;;;;;;11.85;10.65;;;17.60;93.90;;;;;;2035005;29;20074;-69
2021/06/11 02:46:36;;;;;;;12.32;11.02;;;17.60;94.00;;;;;;2041394;29;20028;-68
2021/06/11 02:48:06;;;;;;;12.13;10.30;;;17.50;94.00;;;;;;2041417;29;20071;-69
2021/06/11 02:49:20;;;;;;;11.68;10.48;;;17.50;94.10;;;;;;2040655;29;20035;-69
2021/06/11 02:50:32;;;;;;;12.43;10.20;;;17.50;94.20;;;;;;2040773;29;20028;-69
2021/06/11 02:51:49;;;;;;;10.90;9.90;;;17.50;94.40;;;;;;2041385;29;20078;-69
2021/06/11 02:52:57;;;;;;;11.85;10.75;;;17.50;94.40;;;;;;2040591;29;20032;-69
2021/06/11 02:54:01;;;;;;;11.65;10.45;;;17.50;94.50;;;;;;2040483;29;20459;-69
2021/06/11 02:55:04;;;;;;;11.60;10.40;;;17.50;94.60;;;;;;2040438;29;20039;-68
2021/06/11 02:56:14;;;;;;;11.68;10.48;;;17.50;94.60;;;;;;2040671;29;20135;-69
2021/06/11 02:57:27;;;;;;;11.25;10.15;;;17.50;94.70;;;;;;2032672;29;20032;-69
2021/06/11 02:58:36;;;;;;;13.55;10.75;;;17.50;94.60;;;;;;2034075;29;20032;-68
2021/06/11 02:59:41;;;;;;;11.35;10.25;;;17.50;94.70;;;;;;2041235;29;20551;-68
2021/06/11 03:00:43;;;;;;;12.10;10.50;;;17.50;94.80;;;;;;2041234;29;20622;-68
2021/06/11 03:01:50;;;;;;;11.93;10.27;;;17.50;94.80;;;;;;2041354;29;20399;-68
2021/06/11 03:03:17;;;;;;;11.50;10.40;;;17.50;94.80;;;;;;2041128;29;20407;-68
2021/06/11 03:04:19;;;;;;;11.05;10.05;;;17.50;94.70;;;;;;2040977;29;20190;-68
2021/06/11 03:05:22;;;;;;;11.70;10.50;;;17.50;94.80;;;;;;2040393;29;20016;-69
2021/06/11 03:06:24;;;;;;;11.57;10.48;;;17.50;94.80;;;;;;2040990;29;20031;-68
2021/06/11 03:07:28;;;;;;;11.18;10.07;;;17.50;94.80;;;;;;2041098;29;20666;-68
2021/06/11 03:08:33;;;;;;;11.50;10.30;;;17.50;94.80;;;;;;2041099;29;20411;-69
2021/06/11 03:09:36;;;;;;;11.48;10.18;;;17.50;94.70;;;;;;2041285;29;20032;-69
2021/06/11 03:10:37;;;;;;;11.32;10.15;;;17.50;94.80;;;;;;2041183;29;20031;-68
2021/06/11 03:11:41;;;;;;;10.80;9.70;;;17.50;94.70;;;;;;2041316;29;20024;-69
2021/06/11 03:12:45;;;;;;;12.05;10.40;;;17.60;94.70;;;;;;2041151;29;20028;-68
2021/06/11 03:13:47;;;;;;;11.07;9.88;;;17.60;94.70;;;;;;2032493;29;20403;-68
2021/06/11 03:14:49;;;;;;;11.27;10.07;;;17.60;94.60;;;;;;2032055;29;20061;-69
2021/06/11 03:15:51;;;;;;;11.02;9.93;;;17.60;94.70;;;;;;2041161;29;20043;-70
2021/06/11 03:16:57;;;;;;;10.60;9.60;;;17.60;94.70;;;;;;2041177;29;20411;-68
2021/06/11 03:18:18;;;;;;;11.27;10.10;;;17.60;94.70;;;;;;2032932;29;20115;-69
2021/06/11 03:19:20;;;;;;;11.80;10.60;;;17.60;94.80;;;;;;2040629;29;20234;-68
2021/06/11 03:20:24;;;;;;;11.05;9.73;;;17.60;94.80;;;;;;2040773;29;20028;-68
2021/06/11 03:21:30;;;;;;;10.73;9.70;;;17.60;94.70;;;;;;2040627;29;20035;-69
2021/06/11 03:22:36;;;;;;;10.70;9.70;;;17.60;94.70;;;;;;2040433;29;20032;-68
2021/06/11 03:24:00;;;;;;;10.82;9.73;;;17.60;94.70;;;;;;2040543;29;20023;-68
2021/06/11 03:25:36;;;;;;;10.43;9.15;;;17.70;94.60;;;;;;2040259;29;20024;-69
2021/06/11 03:26:46;;;;;;;10.75;9.65;;;17.70;94.50;;;;;;2037705;29;20046;-68
2021/06/11 03:27:52;;;;;;;;;;;17.70;94.50;;;;;;2040694;29;20039;-69
2021/06/11 03:28:56;;;;;;;11.68;9.85;;;17.70;94.50;;;;;;2040970;29;19910;-69
2021/06/11 03:30:11;;;;;;;10.77;9.77;;;17.70;94.50;;;;;;2033260;29;20036;-69
2021/06/11 03:31:20;;;;;;;10.60;9.60;;;17.70;94.40;;;;;;2041156;29;20028;-68
2021/06/11 03:32:33;;;;;;;11.90;10.10;;;17.70;94.30;;;;;;2040938;29;20102;-68
2021/06/11 03:33:37;;;;;;;11.68;10.48;;;17.70;94.30;;;;;;2040544;29;20031;-69
2021/06/11 03:34:43;;;;;;;11.35;10.25;;;17.80;94.20;;;;;;2038672;29;20083;-70
2021/06/11 03:35:49;;;;;;;11.48;10.27;;;17.80;94.30;;;;;;2040912;29;20044;-69
2021/06/11 03:36:52;;;;;;;14.13;10.57;;;17.80;94.20;;;;;;2040018;29;20640;-69
2021/06/11 03:37:54;;;;;;;10.95;9.85;;;17.80;94.20;;;;;;2040718;29;20027;-70
2021/06/11 03:39:03;;;;;;;11.32;10.13;;;17.80;94.10;;;;;;2040567;29;20023;-69
2021/06/11 03:40:09;;;;;;;10.90;9.80;;;17.80;94.00;;;;;;2032449;29;20096;-69
2021/06/11 03:41:12;;;;;;;10.52;9.43;;;17.80;94.00;;;;;;2033614;29;20032;-69
2021/06/11 03:42:13;;;;;;;14.20;10.35;;;17.80;93.90;;;;;;2040454;29;20035;-69
2021/06/11 03:43:14;;;;;;;10.90;9.80;;;17.80;93.90;;;;;;2017003;29;20033;-68
2021/06/11 03:44:17;;;;;;;11.27;10.18;;;17.90;94.00;;;;;;2024654;29;20114;-69
2021/06/11 03:45:19;;;;;;;11.20;10.10;;;17.90;93.80;;;;;;2031864;29;20174;-69
2021/06/11 03:46:20;;;;;;;11.00;9.90;;;17.90;93.80;;;;;;2040355;29;20420;-70
2021/06/11 03:47:24;;;;;;;10.43;9.43;;;17.90;93.80;;;;;;2040894;29;20079;-70
2021/06/11 03:48:27;;;;;;;11.05;9.95;;;17.90;93.80;;;;;;2040718;29;20034;-69
2021/06/11 03:49:29;;;;;;;12.73;9.82;;;17.90;93.60;;;;;;2040404;29;20464;-69
2021/06/11 03:50:31;;;;;;;11.23;10.13;;;17.90;93.50;;;;;;2040237;29;20024;-68
2021/06/11 03:51:33;;;;;;;11.15;9.73;;;17.90;93.50;;;;;;2041201;29;20365;-68
2021/06/11 03:52:39;;;;;;;10.75;9.75;;;17.90;93.50;;;;;;2040233;29;20460;-70
2021/06/11 03:53:42;;;;;;;12.57;10.13;;;17.90;93.50;;;;;;2032708;29;20081;-68
2021/06/11 03:54:49;;;;;;;10.77;9.75;;;17.90;93.40;;;;;;2032399;29;20135;-69
2021/06/11 03:56:03;;;;;;;11.02;9.93;;;18.00;93.40;;;;;;2040078;29;20074;-68
2021/06/11 03:57:06;;;;;;;11.95;10.55;;;18.00;93.40;;;;;;2040303;29;20674;-68
2021/06/11 03:58:18;;;;;;;10.60;9.48;;;18.00;93.30;;;;;;2040758;29;20034;-69
2021/06/11 03:59:22;;;;;;;10.75;9.65;;;18.00;93.30;;;;;;2040169;29;20035;-70
2021/06/11 04:00:23;;;;;;;10.73;9.63;;;18.10;93.30;;;;;;2039961;29;20582;-69
2021/06/11 04:01:29;;;;;;;10.57;9.57;;;18.10;93.10;;;;;;2040099;29;20032;-68
2021/06/11 04:02:29;;;;;;;10.57;9.57;;;18.20;93.10;;;;;;2040647;29;20023;-69
2021/06/11 04:03:30;;;;;;;14.68;9.95;;;18.20;93.10;;;;;;2040023;29;20024;-68
2021/06/11 04:04:32;;;;;;;12.10;10.02;;;18.20;92.80;;;;;;2039459;29;20107;-69
2021/06/11 04:05:34;;;;;;;10.68;9.60;;;18.20;92.80;;;;;;2039892;29;20047;-68
2021/06/11 04:06:42;;;;;;;11.27;9.70;;;18.20;92.70;;;;;;2044891;29;20811;-68
2021/06/11 04:07:46;;;;;;;14.52;9.65;;;18.30;92.70;;;;;;2040641;29;20118;-69
2021/06/11 04:08:52;;;;;;;12.70;10.02;;;18.30;92.60;;;;;;2039919;29;20467;-69
2021/06/11 04:10:02;;;;;;;12.90;10.45;;;18.30;92.50;;;;;;2040137;29;20065;-69
2021/06/11 04:11:06;;;;;;;10.90;9.20;;;18.30;92.50;;;;;;2033573;29;20488;-68
2021/06/11 04:12:08;;;;;;;10.85;9.80;;;18.40;92.40;;;;;;2040047;29;20084;-69
2021/06/11 04:13:17;;;;;;;10.45;9.45;;;18.40;92.30;;;;;;2039727;29;20710;-68
2021/06/11 04:14:27;;;;;;;11.55;10.35;;;18.50;92.30;;;;;;2035163;29;20023;-70
2021/06/11 04:15:33;;;;;;;12.50;10.30;;;18.60;92.20;;;;;;2040406;29;20039;-69
2021/06/11 04:16:44;;;;;;;10.55;9.50;;;18.70;92.00;;;;;;2040542;29;20327;-70
2021/06/11 04:17:50;;;;;;;;;;;18.80;91.80;;;;;;2041174;29;20436;-70
2021/06/11 04:18:54;;;;;;;10.95;9.75;;;18.80;91.50;;;;;;2040643;29;19906;-70
2021/06/11 04:19:57;;;;;;;10.30;9.30;;;18.90;91.40;;;;;;2048044;29;20034;-70
2021/06/11 04:21:02;;;;;;;10.35;9.35;;;18.90;91.60;;;;;;2032142;29;20115;-71
2021/06/11 04:22:04;;;;;;;10.70;9.10;;;19.00;91.10;;;;;;2032843;29;20129;-71
2021/06/11 04:23:07;;;;;;;11.68;9.95;;;19.10;91.00;;;;;;2040150;29;20463;-70
2021/06/11 04:24:11;;;;;;;10.18;9.18;;;19.10;90.80;;;;;;2024356;29;20032;-70
2021/06/11 04:25:13;;;;;;;10.55;9.55;;;19.10;90.50;;;;;;2024415;29;20633;-70
2021/06/11 04:26:15;;;;;;;10.57;9.52;;;19.20;90.30;;;;;;2040806;29;20062;-70
2021/06/11 04:27:19;;;;;;;12.38;10.32;;;19.20;90.00;;;;;;2040091;29;20024;-70
2021/06/11 04:28:22;;;;;;;13.75;10.68;;;19.20;88.70;;;;;;2042323;29;20103;-71
2021/06/11 04:29:27;;;;;;;11.65;10.02;;;19.20;87.30;;;;;;2053016;29;20031;-71
2021/06/11 04:30:28;;;;;;;10.85;9.60;;;19.20;87.40;;;;;;2045742;29;20055;-70
2021/06/11 04:31:29;;;;;;;9.98;9.05;;;19.10;87.30;;;;;;2043797;29;20020;-71
2021/06/11 04:32:30;;;;;;;10.38;9.40;;;19.20;87.40;;;;;;2044853;29;20038;-71
2021/06/11 04:33:31;;;;;;;9.80;8.80;;;19.20;87.60;;;;;;2035045;29;20080;-70
2021/06/11 04:34:32;;;;;;;10.10;9.10;;;19.20;87.40;;;;;;2041620;29;20055;-69
2021/06/11 04:35:36;;;;;;;11.32;9.45;;;19.30;87.30;;;;;;2044577;29;20113;-69
2021/06/11 04:36:37;;;;;;;10.00;9.00;;;19.30;87.00;;;;;;2042154;29;20031;-70
2021/06/11 04:37:38;;;;;;;10.10;9.07;;;19.30;86.50;;;;;;2033930;29;20604;-70
2021/06/11 04:38:59;;;;;;;10.45;9.38;;;19.30;86.50;;;;;;2033863;29;20020;-69
2021/06/11 04:39:59;;;;;;;9.35;8.45;;;19.40;86.30;;;;;;2041113;29;20038;-70
2021/06/11 04:41:00;;;;;;;10.70;9.02;;;19.50;86.10;;;;;;2043566;29;20048;-70
2021/06/11 04:42:01;;;;;;;10.15;9.15;;;19.60;85.70;;;;;;2041309;29;20033;-70
2021/06/11 04:43:02;;;;;;;9.63;8.70;;;19.70;85.30;;;;;;2040670;29;20055;-69
2021/06/11 04:44:04;;;;;;;12.48;10.05;;;19.80;84.90;;;;;;2040359;29;20063;-73
2021/06/11 04:45:06;;;;;;;10.40;9.30;;;19.90;84.20;;;;;;2039676;29;20023;-69
2021/06/11 04:46:06;;;;;;;10.55;9.45;;;20.00;83.70;;;;;;2039622;29;20031;-70
2021/06/11 04:47:07;;;;;;;9.77;8.77;;;20.10;82.90;;;;;;2039857;29;20492;-69
2021/06/11 04:48:08;;;;;;;10.98;8.88;;;20.20;82.30;;;;;;2040575;29;20036;-69
2021/06/11 04:49:09;;;;;;;9.63;8.60;;;20.20;81.70;;;;;;2040414;29;20519;-69
2021/06/11 04:50:13;;;;;;;9.57;8.57;;;20.30;81.20;;;;;;2039791;29;20525;-69
2021/06/11 04:51:14;;;;;;;10.20;9.20;;;20.30;80.90;;;;;;2039646;29;20039;-69
2021/06/11 04:52:14;;;;;;;10.00;8.88;;;20.30;80.60;;;;;;2039580;29;20047;-69
2021/06/11 04:53:15;;;;;;;9.13;8.23;;;20.30;81.40;;;;;;2034263;29;20031;-69
2021/06/11 04:54:15;;;;;;;9.30;8.40;;;20.20;80.30;;;;;;2040256;29;20028;-70
2021/06/11 04:55:16;;;;;;;9.48;7.95;;;20.20;80.20;;;;;;2038882;29;20036;-69
2021/06/11 04:56:17;;;;;;;8.60;7.75;;;20.20;80.10;;;;;;2039758;29;20087;-69
2021/06/11 04:57:18;;;;;;;8.60;7.80;;;20.20;80.00;;;;;;2039814;29;20109;-70
2021/06/11 04:58:18;;;;;;;8.45;7.38;;;20.20;79.90;;;;;;2030155;29;20030;-69
2021/06/11 04:59:19;;;;;;;8.95;8.05;;;20.20;79.90;;;;;;2040114;29;20034;-70
2021/06/11 05:00:21;;;;;;;9.00;8.18;;;20.30;80.00;;;;;;2039831;29;20041;-70
2021/06/11 05:01:22;;;;;;;8.23;7.35;;;20.30;80.10;;;;;;2039876;29;20412;-70
2021/06/11 05:02:22;;;;;;;8.75;7.95;;;20.30;80.10;;;;;;2040657;29;20083;-71
2021/06/11 05:03:23;;;;;;;8.95;8.05;;;20.30;80.00;;;;;;2040505;29;20082;-70
2021/06/11 05:04:24;;;;;;;8.75;7.88;;;20.30;79.70;;;;;;2040433;29;20090;-70
2021/06/11 05:05:24;;;;;;;8.40;7.60;;;20.30;79.60;;;;;;2039943;29;20028;-70
2021/06/11 05:06:25;;;;;;;8.30;7.50;;;20.40;79.50;;;;;;2040344;29;20035;-69
2021/06/11 05:07:26;;;;;;;8.35;7.18;;;20.40;79.40;;;;;;2039907;29;20080;-70
2021/06/11 05:08:27;;;;;;;9.45;8.50;;;20.40;79.20;;;;;;2039685;29;20031;-70
2021/06/11 05:09:28;;;;;;;9.85;8.85;;;20.50;79.10;;;;;;2036303;29;20115;-70
2021/06/11 05:10:29;;;;;;;10.05;8.70;;;20.50;78.90;;;;;;2040148;29;20028;-71
2021/06/11 05:11:29;;;;;;;9.63;8.70;;;20.50;78.70;;;;;;2039978;29;20024;-70
2021/06/11 05:12:30;;;;;;;9.77;8.73;;;20.50;78.70;;;;;;2040074;29;20035;-70
2021/06/11 05:13:31;;;;;;;10.55;8.85;;;20.50;78.80;;;;;;2040077;29;20115;-70
2021/06/11 05:14:32;;;;;;;11.65;9.93;;;20.50;78.50;;;;;;2038999;29;20120;-70
2021/06/11 05:15:32;;;;;;;13.13;10.50;;;20.50;78.70;;;;;;2039267;29;20802;-71
2021/06/11 05:16:33;;;;;;;12.68;9.65;;;20.40;78.60;;;;;;2040218;29;20070;-70
2021/06/11 05:17:34;;;;;;;16.83;10.40;;;20.40;79.20;;;;;;2039504;29;20044;-69
2021/06/11 05:18:34;;;;;;;11.82;9.00;;;20.40;79.60;;;;;;2031668;29;20039;-70
2021/06/11 05:19:35;;;;;;;11.60;9.32;;;20.30;79.50;;;;;;2036676;29;20035;-69
2021/06/11 05:20:39;;;;;;;10.13;8.88;;;20.40;79.60;;;;;;2047300;29;20038;-70
2021/06/11 05:21:40;;;;;;;12.48;9.20;;;20.50;80.00;;;;;;2039821;29;20495;-69
2021/06/11 05:22:41;;;;;;;12.00;10.13;;;20.50;80.10;;;;;;2039962;29;20038;-69
2021/06/11 05:23:41;;;;;;;10.75;9.43;;;20.50;80.30;;;;;;2039985;29;20824;-69
2021/06/11 05:24:42;;;;;;;10.10;8.82;;;20.60;80.10;;;;;;2039081;29;20372;-71
2021/06/11 05:25:42;;;;;;;10.00;8.98;;;20.70;79.50;;;;;;2039710;29;20016;-69